Aviation Digital Data Service (ADDS)

Output produced by METARs form (1308 UTC 24 August 2019)
found at http://www.aviationweather.gov/metar/data/
 
Forecast for: FKKL (MAROUA SALAK , CM)
Text: TAF FKKL 240500Z 2406/2418 26008KT 9999 FEW040
Forecast period: 0600 to 1800 UTC 24 August 2019
Forecast type: FROM: standard forecast or significant change
Winds: from the W (260 degrees) at 9 MPH (8 knots; 4.1 m/s)
Visibility: 6 or more miles 10+ km)
Ceiling: at least 12,000 feet AGL
Clouds: few clouds at 4000 feet AGL
Weather: no significant weather forecast for this period
Text: PROB30
Forecast period: 1300 to 1800 UTC 24 August 2019
Forecast type: TEMPORARY: The following changes expected for less than half the time period
Visibility: 1.86 miles (2.99 km)
Ceiling: at least 12,000 feet AGL
Clouds: scattered clouds at 3500 feet AGL
few clouds at 4000 feet AGL
Weather: TSRA  (rain associated with thunderstorm(s))